Time;durP1;ratioP1;P1;durP2;ratioP2;P2;SDS_P1;SDS_P2;PMS_P1;PMS_P2;Temp;Humidity;BMP_temperature;BMP_pressure;BME280_temperature;BME280_humidity;BME280_pressure;Samples;Min_cycle;Max_cycle;Signal;HPM_P1;HPM_P2
2024/03/24 00:00:18;;;;;;;;;;;;;;;19.98;48.07;99946.97;2052119;28;6302;-61
2024/03/24 00:01:19;;;;;;;;;;;;;;;19.99;48.06;99948.44;2050031;28;2305;-61
2024/03/24 00:02:19;;;;;;;;;;;;;;;19.99;48.02;99942.69;2057590;28;2359;-61
2024/03/24 00:03:20;;;;;;;;;;;;;;;20.01;48.03;99950.66;2059109;28;2264;-61
2024/03/24 00:04:20;;;;;;;;;;;;;;;20.02;48.05;99949.22;2053347;28;1720;-61
2024/03/24 00:05:20;;;;;;;;;;;;;;;20.01;47.94;99939.88;2052007;28;2014;-61
2024/03/24 00:06:21;;;;;;;;;;;;;;;20.02;48.06;99940.63;2053673;28;1682;-61
2024/03/24 00:07:21;;;;;;;;;;;;;;;20.04;48.15;99941.44;2054875;28;1871;-61
2024/03/24 00:08:22;;;;;;;;;;;;;;;20.02;48.18;99947.13;2050849;28;3097;-61
2024/03/24 00:09:22;;;;;;;;;;;;;;;20.04;48.05;99944.31;2052548;28;2324;-61
2024/03/24 00:10:22;;;;;;;;;;;;;;;20.05;48.29;99940.03;2048459;28;2396;-61
2024/03/24 00:11:23;;;;;;;;;;;;;;;20.05;48.30;99940.03;2059085;28;2316;-61
2024/03/24 00:12:23;;;;;;;;;;;;;;;20.06;48.16;99929.25;2059472;28;2233;-61
2024/03/24 00:13:24;;;;;;;;;;;;;;;20.05;48.33;99928.53;2052326;28;2033;-61
2024/03/24 00:14:24;;;;;;;;;;;;;;;20.05;48.14;99928.53;2057796;28;2350;-61
2024/03/24 00:15:25;;;;;;;;;;;;;;;20.05;48.26;99922.78;2051502;28;2305;-61
2024/03/24 00:16:25;;;;;;;;;;;;;;;20.06;48.08;99924.25;2049392;28;2416;-61
2024/03/24 00:17:26;;;;;;;;;;;;;;;20.06;48.18;99930.00;2048328;28;2648;-61
2024/03/24 00:18:26;;;;;;;;;;;;;;;20.07;48.16;99922.84;2059232;28;2311;-61
2024/03/24 00:19:27;;;;;;;;;;;;;;;20.08;47.99;99920.72;2051671;28;2173;-61
2024/03/24 00:20:27;;;;;;;;;;;;;;;20.07;47.97;99922.13;2048820;28;2346;-61
2024/03/24 00:21:27;;;;;;;;;;;;;;;20.07;48.15;99925.72;2050245;28;2358;-61
2024/03/24 00:22:28;;;;;;;;;;;;;;;20.05;48.11;99919.91;2048664;28;2530;-61
2024/03/24 00:23:28;;;;;;;;;;;;;;;20.07;48.06;99919.25;2050006;28;2477;-61
2024/03/24 00:24:29;;;;;;;;;;;;;;;20.08;48.00;99927.19;2060730;28;1737;-61
2024/03/24 00:25:29;;;;;;;;;;;;;;;20.08;48.11;99921.44;2052397;28;1977;-61
2024/03/24 00:26:30;;;;;;;;;;;;;;;20.07;48.06;99922.84;2052080;28;1708;-61
2024/03/24 00:27:30;;;;;;;;;;;;;;;20.07;48.16;99925.00;2051030;28;2061;-61
2024/03/24 00:28:31;;;;;;;;;;;;;;;20.06;48.17;99924.25;2052822;28;2112;-61
2024/03/24 00:29:31;;;;;;;;;;;;;;;20.07;48.13;99925.00;2059876;28;2457;-61
2024/03/24 00:30:32;;;;;;;;;;;;;;;20.07;48.03;99925.00;2058230;28;6170;-61
2024/03/24 00:31:33;;;;;;;;;;;;;;;20.06;48.24;99917.75;2051423;28;2281;-61
2024/03/24 00:32:33;;;;;;;;;;;;;;;20.06;48.17;99920.63;2053677;28;1624;-61
2024/03/24 00:33:33;;;;;;;;;;;;;;;20.05;48.08;99922.78;2052824;28;1830;-61
2024/03/24 00:34:34;;;;;;;;;;;;;;;20.05;48.19;99910.56;2052506;28;1792;-61
2024/03/24 00:35:34;;;;;;;;;;;;;;;20.05;48.09;99928.53;2052848;28;2518;-61
2024/03/24 00:36:35;;;;;;;;;;;;;;;20.06;48.10;99917.75;2051649;28;2411;-61
2024/03/24 00:37:38;;;;;;;;;;;;;;;20.05;48.13;99917.03;2055881;28;2324;-61
2024/03/24 00:38:39;;;;;;;;;;;;;;;20.04;48.13;99915.56;2057347;28;2705;-61
2024/03/24 00:39:39;;;;;;;;;;;;;;;20.04;48.16;99915.56;2050014;28;2697;-61
2024/03/24 00:40:40;;;;;;;;;;;;;;;20.04;48.12;99918.44;2051254;28;2422;-61
2024/03/24 00:41:40;;;;;;;;;;;;;;;20.05;48.11;99916.31;2050485;28;2757;-61
2024/03/24 00:42:41;;;;;;;;;;;;;;;20.04;48.12;99915.56;2049444;28;2788;-61
2024/03/24 00:43:41;;;;;;;;;;;;;;;20.03;48.07;99914.09;2049267;28;2397;-61
2024/03/24 00:44:41;;;;;;;;;;;;;;;20.02;48.06;99912.63;2051104;28;2328;-61
2024/03/24 00:45:42;;;;;;;;;;;;;;;20.03;48.19;99907.63;2049721;28;2332;-61
2024/03/24 00:46:43;;;;;;;;;;;;;;;20.03;48.14;99916.97;2058574;28;2438;-61
2024/03/24 00:47:43;;;;;;;;;;;;;;;20.03;48.16;99913.38;2051985;28;2642;-61
2024/03/24 00:48:44;;;;;;;;;;;;;;;20.03;48.27;99908.34;2061416;28;1666;-61
2024/03/24 00:49:44;;;;;;;;;;;;;;;20.04;48.05;99909.06;2056981;28;2166;-61
2024/03/24 00:50:45;;;;;;;;;;;;;;;20.02;48.19;99906.88;2050392;28;2837;-61
2024/03/24 00:51:45;;;;;;;;;;;;;;;20.02;48.09;99906.88;2053610;28;2338;-61
2024/03/24 00:52:45;;;;;;;;;;;;;;;20.04;48.08;99904.09;2058199;28;2145;-61
2024/03/24 00:53:46;;;;;;;;;;;;;;;20.03;48.19;99896.84;2062935;28;1766;-61
2024/03/24 00:54:46;;;;;;;;;;;;;;;20.04;48.36;99904.09;2053944;28;2124;-61
2024/03/24 00:55:47;;;;;;;;;;;;;;;20.05;48.12;99899.78;2062622;28;1686;-61
2024/03/24 00:56:47;;;;;;;;;;;;;;;20.05;48.39;99894.03;2060194;28;2069;-61
2024/03/24 00:57:48;;;;;;;;;;;;;;;20.05;48.27;99893.31;2049530;28;2144;-61
2024/03/24 00:58:48;;;;;;;;;;;;;;;20.06;48.17;99889.75;2050214;28;2380;-61
2024/03/24 00:59:49;;;;;;;;;;;;;;;20.06;48.16;99889.75;2052858;28;2280;-61
2024/03/24 01:00:49;;;;;;;;;;;;;;;20.06;48.23;99892.63;2053845;28;6235;-61
2024/03/24 01:01:50;;;;;;;;;;;;;;;20.06;48.05;99892.63;2062792;28;2027;-61
2024/03/24 01:02:50;;;;;;;;;;;;;;;20.07;47.85;99893.38;2054173;28;2011;-61
2024/03/24 01:03:51;;;;;;;;;;;;;;;20.06;48.15;99889.75;2061285;28;2100;-61
2024/03/24 01:04:51;;;;;;;;;;;;;;;20.06;48.07;99889.75;2062685;28;1742;-61
2024/03/24 01:05:52;;;;;;;;;;;;;;;20.06;48.05;99878.25;2054586;28;1973;-61
2024/03/24 01:06:52;;;;;;;;;;;;;;;20.07;48.19;99888.38;2052661;28;2130;-61
2024/03/24 01:07:53;;;;;;;;;;;;;;;20.07;48.06;99881.88;2054881;28;2367;-61
2024/03/24 01:08:53;;;;;;;;;;;;;;;20.07;48.13;99884.75;2051709;28;2365;-61
2024/03/24 01:09:54;;;;;;;;;;;;;;;20.06;48.12;99878.25;2060141;28;2380;-61
2024/03/24 01:10:55;;;;;;;;;;;;;;;20.06;48.11;99878.25;2058314;28;2386;-61
2024/03/24 01:11:55;;;;;;;;;;;;;;;20.06;48.10;99878.25;2053525;28;2717;-61
2024/03/24 01:12:55;;;;;;;;;;;;;;;20.06;48.04;99878.25;2053035;28;2503;-61
2024/03/24 01:13:56;;;;;;;;;;;;;;;20.07;48.20;99876.16;2052367;28;2025;-61
2024/03/24 01:14:56;;;;;;;;;;;;;;;20.05;48.06;99871.06;2054021;28;1676;-61
2024/03/24 01:15:57;;;;;;;;;;;;;;;20.05;48.06;99867.44;2052810;28;2133;-61
2024/03/24 01:16:57;;;;;;;;;;;;;;;20.04;48.19;99863.84;2056883;28;1857;-61
2024/03/24 01:17:58;;;;;;;;;;;;;;;20.05;48.27;99858.84;2060355;28;2296;-61
2024/03/24 01:18:58;;;;;;;;;;;;;;;20.04;48.01;99863.84;2052334;28;2384;-61
2024/03/24 01:19:58;;;;;;;;;;;;;;;20.04;48.05;99854.47;2054864;28;1669;-61
2024/03/24 01:20:59;;;;;;;;;;;;;;;20.04;48.26;99852.34;2061038;28;1719;-61
2024/03/24 01:21:59;;;;;;;;;;;;;;;20.02;48.10;99855.16;2060808;28;2051;-61
2024/03/24 01:22:59;;;;;;;;;;;;;;;20.03;48.24;99856.63;2054621;28;1620;-61
2024/03/24 01:24:00;;;;;;;;;;;;;;;20.03;48.27;99856.63;2054222;28;2093;-61
2024/03/24 01:25:00;;;;;;;;;;;;;;;20.02;48.21;99854.41;2053562;28;2120;-61
2024/03/24 01:26:01;;;;;;;;;;;;;;;20.02;48.15;99849.41;2052975;28;2104;-61
2024/03/24 01:27:01;;;;;;;;;;;;;;;20.03;48.32;99855.88;2061622;28;2087;-61
2024/03/24 01:28:02;;;;;;;;;;;;;;;20.02;48.28;99858.03;2052133;28;2531;-61
2024/03/24 01:29:02;;;;;;;;;;;;;;;20.02;48.26;99846.53;2052346;28;2293;-61
2024/03/24 01:30:03;;;;;;;;;;;;;;;20.01;48.07;99842.19;2057581;28;6521;-61
2024/03/24 01:31:04;;;;;;;;;;;;;;;20.02;48.08;99855.16;2053044;28;2267;-61
2024/03/24 01:32:05;;;;;;;;;;;;;;;20.01;48.09;99845.06;2050368;28;2420;-61
2024/03/24 01:33:05;;;;;;;;;;;;;;;20.02;48.04;99849.41;2053245;28;2337;-61
2024/03/24 01:34:05;;;;;;;;;;;;;;;20.02;48.04;99843.66;2043899;28;2300;-61
2024/03/24 01:35:06;;;;;;;;;;;;;;;20.02;48.11;99837.91;2041979;28;2585;-61
2024/03/24 01:36:06;;;;;;;;;;;;;;;20.02;48.06;99843.66;2044233;28;2315;-61
2024/03/24 01:37:07;;;;;;;;;;;;;;;20.04;48.18;99840.84;2047555;28;2355;-61
2024/03/24 01:38:07;;;;;;;;;;;;;;;20.04;48.12;99837.22;2051946;28;2394;-61
2024/03/24 01:39:09;;;;;;;;;;;;;;;20.04;48.27;99835.13;2041935;28;2417;-61
2024/03/24 01:40:10;;;;;;;;;;;;;;;20.05;48.15;99836.56;2050633;28;2357;-61
2024/03/24 01:41:10;;;;;;;;;;;;;;;20.05;48.03;99841.59;2043007;28;2340;-61
2024/03/24 01:42:10;;;;;;;;;;;;;;;20.05;48.20;99832.97;2052786;28;2291;-61
2024/03/24 01:43:11;;;;;;;;;;;;;;;20.05;48.26;99830.09;2060889;28;2049;-61
2024/03/24 01:44:11;;;;;;;;;;;;;;;20.05;48.23;99830.81;2053782;28;2026;-61
2024/03/24 01:45:12;;;;;;;;;;;;;;;20.05;48.04;99833.69;2044708;28;2480;-61
2024/03/24 01:46:13;;;;;;;;;;;;;;;20.05;48.31;99825.06;2047213;28;2160;-60
2024/03/24 01:47:13;;;;;;;;;;;;;;;20.06;48.17;99825.81;2046872;28;2159;-61
2024/03/24 01:48:14;;;;;;;;;;;;;;;20.04;48.10;99829.38;2042135;28;2450;-61
2024/03/24 01:49:15;;;;;;;;;;;;;;;20.05;48.17;99836.56;2049705;28;2370;-61
2024/03/24 01:50:15;;;;;;;;;;;;;;;20.05;48.03;99830.09;2051355;28;2258;-61
2024/03/24 01:51:17;;;;;;;;;;;;;;;20.04;48.08;99826.50;2052267;28;2361;-61
2024/03/24 01:52:17;;;;;;;;;;;;;;;20.04;48.28;99829.38;2053972;28;2233;-61
2024/03/24 01:53:19;;;;;;;;;;;;;;;20.03;48.30;99822.13;2043893;28;2197;-61
2024/03/24 01:54:19;;;;;;;;;;;;;;;20.04;48.24;99823.63;2047900;28;1605;-61
2024/03/24 01:55:20;;;;;;;;;;;;;;;20.03;48.04;99816.38;2046420;28;2138;-61
2024/03/24 01:56:20;;;;;;;;;;;;;;;20.04;48.31;99829.38;2047337;28;2475;-60
2024/03/24 01:57:21;;;;;;;;;;;;;;;20.02;48.18;99820.69;2045114;28;2378;-61
2024/03/24 01:58:21;;;;;;;;;;;;;;;20.03;48.09;99827.16;2051274;28;2381;-61
2024/03/24 01:59:21;;;;;;;;;;;;;;;20.03;48.21;99827.88;2049171;28;2346;-61
2024/03/24 02:00:22;;;;;;;;;;;;;;;20.04;48.16;99823.63;2054541;28;6322;-61
2024/03/24 02:01:22;;;;;;;;;;;;;;;20.03;48.28;99816.38;2045619;28;2300;-61
2024/03/24 02:02:23;;;;;;;;;;;;;;;20.03;48.22;99827.16;2045874;28;2367;-61
2024/03/24 02:03:23;;;;;;;;;;;;;;;20.04;48.12;99822.88;2045786;28;2447;-61
2024/03/24 02:04:23;;;;;;;;;;;;;;;20.02;48.00;99817.81;2056032;28;1909;-61
2024/03/24 02:05:25;;;;;;;;;;;;;;;20.02;48.28;99814.19;2053214;28;2149;-61
2024/03/24 02:06:25;;;;;;;;;;;;;;;20.01;48.06;99822.06;2047123;28;2102;-61
2024/03/24 02:07:25;;;;;;;;;;;;;;;20.02;48.07;99814.94;2050692;28;2275;-61
2024/03/24 02:08:28;;;;;;;;;;;;;;;20.02;48.13;99814.94;2050203;28;2400;-61
2024/03/24 02:09:28;;;;;;;;;;;;;;;20.02;48.01;99814.94;2044398;28;2294;-61
2024/03/24 02:10:28;;;;;;;;;;;;;;;20.03;48.01;99809.91;2044003;28;2367;-61
2024/03/24 02:11:29;;;;;;;;;;;;;;;20.01;48.13;99810.56;2049116;28;2363;-61
2024/03/24 02:12:29;;;;;;;;;;;;;;;20.02;48.01;99802.69;2045069;28;2367;-61
2024/03/24 02:13:29;;;;;;;;;;;;;;;20.02;48.07;99806.31;2047226;28;1622;-61
2024/03/24 02:14:31;;;;;;;;;;;;;;;20.03;48.02;99804.16;2045733;28;2059;-61
2024/03/24 02:15:31;;;;;;;;;;;;;;;20.01;48.05;99801.97;2045778;28;2079;-61
2024/03/24 02:16:32;;;;;;;;;;;;;;;20.02;48.02;99803.44;2045124;28;2134;-61
2024/03/24 02:17:33;;;;;;;;;;;;;;;20.03;48.07;99799.16;2043322;28;2307;-61
2024/03/24 02:18:33;;;;;;;;;;;;;;;20.03;48.04;99795.53;2045438;28;2374;-60
2024/03/24 02:19:33;;;;;;;;;;;;;;;20.04;47.98;99805.63;2044546;28;2428;-61
2024/03/24 02:20:34;;;;;;;;;;;;;;;20.04;47.98;99788.38;2042844;28;2691;-61
2024/03/24 02:21:34;;;;;;;;;;;;;;;20.04;48.03;99806.38;2044259;28;2433;-61
2024/03/24 02:22:38;;;;;;;;;;;;;;;20.05;47.98;99813.59;2043487;28;2300;-61
2024/03/24 02:23:39;;;;;;;;;;;;;;;20.04;47.95;99794.88;2042710;28;2339;-61
2024/03/24 02:24:39;;;;;;;;;;;;;;;20.06;48.15;99808.56;2041853;28;2370;-61
2024/03/24 02:25:39;;;;;;;;;;;;;;;20.04;47.98;99800.63;2042939;28;2526;-61
2024/03/24 02:26:40;;;;;;;;;;;;;;;20.05;48.04;99804.97;2042525;28;2249;-61
2024/03/24 02:27:41;;;;;;;;;;;;;;;20.05;47.91;99802.09;2052258;28;2141;-61
2024/03/24 02:28:42;;;;;;;;;;;;;;;20.05;48.02;99802.09;2050515;28;1700;-61
2024/03/24 02:29:42;;;;;;;;;;;;;;;20.05;48.04;99799.22;2051948;28;2038;-61
2024/03/24 02:30:44;;;;;;;;;;;;;;;20.03;47.88;99799.16;2055816;28;6266;-61
2024/03/24 02:31:44;;;;;;;;;;;;;;;20.04;47.91;99792.00;2057406;28;2341;-61
2024/03/24 02:32:44;;;;;;;;;;;;;;;20.05;48.10;99795.59;2058926;28;2414;-61
2024/03/24 02:33:45;;;;;;;;;;;;;;;20.03;48.26;99798.41;2052541;28;2433;-61
2024/03/24 02:34:45;;;;;;;;;;;;;;;20.04;48.24;99800.63;2052507;28;2370;-61
2024/03/24 02:35:48;;;;;;;;;;;;;;;20.03;47.92;99795.53;2058434;28;2039;-61
2024/03/24 02:36:49;;;;;;;;;;;;;;;20.03;48.07;99799.16;2061569;28;1646;-61
2024/03/24 02:37:49;;;;;;;;;;;;;;;20.02;47.96;99791.19;2061137;28;1619;-61
2024/03/24 02:38:50;;;;;;;;;;;;;;;20.02;47.96;99797.69;2060991;28;1797;-61
2024/03/24 02:39:50;;;;;;;;;;;;;;;20.01;48.07;99784.72;2052520;28;1805;-65
2024/03/24 02:40:50;;;;;;;;;;;;;;;20.04;47.94;99797.00;2059004;28;2343;-65
2024/03/24 02:41:51;;;;;;;;;;;;;;;20.02;47.97;99782.56;2059408;28;2481;-61
2024/03/24 02:42:51;;;;;;;;;;;;;;;20.01;47.96;99784.72;2060062;28;2491;-64
2024/03/24 02:43:52;;;;;;;;;;;;;;;20.01;48.18;99784.72;2052597;28;2053;-67
2024/03/24 02:44:52;;;;;;;;;;;;;;;20.01;47.99;99784.72;2053727;28;1660;-67
2024/03/24 02:45:55;;;;;;;;;;;;;;;20.01;48.05;99784.72;2061283;28;2215;-68
2024/03/24 02:46:56;;;;;;;;;;;;;;;20.01;47.88;99778.97;2061759;28;1642;-67
2024/03/24 02:47:56;;;;;;;;;;;;;;;20.00;47.95;99777.50;2053683;28;1644;-68
2024/03/24 02:48:57;;;;;;;;;;;;;;;20.01;47.94;99784.00;2061286;28;1734;-68
2024/03/24 02:49:58;;;;;;;;;;;;;;;20.00;47.96;99771.75;2051481;28;2140;-67
2024/03/24 02:50:58;;;;;;;;;;;;;;;20.00;48.14;99773.91;2050537;28;2341;-67
2024/03/24 02:51:58;;;;;;;;;;;;;;;19.98;48.06;99774.56;2054674;28;2106;-68
2024/03/24 02:52:59;;;;;;;;;;;;;;;19.99;47.96;99776.03;2061017;28;1629;-67
2024/03/24 02:53:59;;;;;;;;;;;;;;;20.00;47.94;99771.75;2053682;28;1724;-67
2024/03/24 02:55:00;;;;;;;;;;;;;;;19.99;47.99;99776.03;2054592;28;1810;-67
2024/03/24 02:56:00;;;;;;;;;;;;;;;20.01;47.99;99773.22;2048877;28;2353;-67
2024/03/24 02:57:00;;;;;;;;;;;;;;;20.00;47.94;99760.28;2049797;28;2404;-68
2024/03/24 02:58:01;;;;;;;;;;;;;;;19.99;48.01;99764.53;2050311;28;2769;-67
2024/03/24 02:59:01;;;;;;;;;;;;;;;20.01;47.98;99766.75;2052601;28;2467;-68
2024/03/24 03:00:04;;;;;;;;;;;;;;;20.02;48.02;99757.47;2051974;28;6135;-66
2024/03/24 03:01:04;;;;;;;;;;;;;;;20.02;48.07;99757.47;2058283;28;2303;-68
2024/03/24 03:02:05;;;;;;;;;;;;;;;20.02;48.00;99757.47;2058161;28;2340;-68
2024/03/24 03:03:05;;;;;;;;;;;;;;;20.01;47.98;99764.59;2050869;28;2466;-67
2024/03/24 03:04:06;;;;;;;;;;;;;;;20.01;47.90;99758.84;2052030;28;2311;-67
2024/03/24 03:05:06;;;;;;;;;;;;;;;20.01;48.12;99755.97;2053002;28;2054;-67
2024/03/24 03:06:07;;;;;;;;;;;;;;;20.02;47.95;99757.47;2052674;28;2634;-67
2024/03/24 03:07:07;;;;;;;;;;;;;;;20.03;47.88;99758.19;2052004;28;2388;-67
2024/03/24 03:08:08;;;;;;;;;;;;;;;20.03;47.90;99750.28;2051882;28;2336;-68
2024/03/24 03:09:09;;;;;;;;;;;;;;;20.02;48.12;99754.59;2052415;28;1678;-68
2024/03/24 03:10:10;;;;;;;;;;;;;;;20.03;47.92;99755.31;2051456;28;2223;-67
2024/03/24 03:11:10;;;;;;;;;;;;;;;20.01;48.01;99753.09;2051875;28;2349;-67
2024/03/24 03:12:11;;;;;;;;;;;;;;;20.03;48.13;99755.31;2052536;28;2151;-67
2024/03/24 03:13:11;;;;;;;;;;;;;;;20.01;47.83;99755.97;2053849;28;2144;-67
2024/03/24 03:14:11;;;;;;;;;;;;;;;20.02;47.87;99753.84;2058938;28;2312;-68
2024/03/24 03:15:15;;;;;;;;;;;;;;;20.02;47.93;99756.72;2056965;28;2485;-68
2024/03/24 03:16:15;;;;;;;;;;;;;;;20.02;47.94;99750.97;2052431;28;2273;-67
2024/03/24 03:17:16;;;;;;;;;;;;;;;20.01;47.99;99755.25;2052802;28;1653;-68
2024/03/24 03:18:16;;;;;;;;;;;;;;;20.01;47.98;99752.38;2060268;28;2037;-68
2024/03/24 03:19:16;;;;;;;;;;;;;;;20.00;48.04;99757.41;2059623;28;2249;-67
2024/03/24 03:20:18;;;;;;;;;;;;;;;20.00;47.93;99754.53;2049394;28;2472;-68
2024/03/24 03:21:18;;;;;;;;;;;;;;;20.01;48.01;99755.97;2051093;28;2380;-68
2024/03/24 03:22:19;;;;;;;;;;;;;;;20.00;47.91;99754.53;2050880;28;2888;-67
2024/03/24 03:23:19;;;;;;;;;;;;;;;20.00;47.87;99750.94;2050820;28;2416;-67
2024/03/24 03:24:19;;;;;;;;;;;;;;;19.99;47.90;99753.03;2059165;28;2390;-67
2024/03/24 03:25:20;;;;;;;;;;;;;;;19.99;48.09;99758.78;2050661;28;2312;-67
2024/03/24 03:26:21;;;;;;;;;;;;;;;19.99;47.96;99752.31;2050801;28;1985;-68
2024/03/24 03:27:21;;;;;;;;;;;;;;;19.99;47.93;99747.28;2059209;28;1880;-67
2024/03/24 03:28:21;;;;;;;;;;;;;;;19.98;47.96;99745.84;2062152;28;1733;-67
2024/03/24 03:29:22;;;;;;;;;;;;;;;19.97;48.00;99750.09;2053704;28;1637;-66
2024/03/24 03:30:22;;;;;;;;;;;;;;;19.98;47.98;99745.13;2049438;28;9047;-68
2024/03/24 03:31:23;;;;;;;;;;;;;;;19.98;47.95;99745.13;2059180;28;2352;-67
2024/03/24 03:32:23;;;;;;;;;;;;;;;19.98;47.89;99748.72;2060936;28;2312;-67
2024/03/24 03:33:23;;;;;;;;;;;;;;;19.98;48.08;99750.88;2060718;28;1711;-68
2024/03/24 03:34:24;;;;;;;;;;;;;;;19.98;47.93;99751.59;2058312;28;2263;-67
2024/03/24 03:35:24;;;;;;;;;;;;;;;19.98;47.96;99740.09;2061584;28;1599;-67
2024/03/24 03:36:24;;;;;;;;;;;;;;;19.98;47.92;99742.25;2059773;28;2068;-67
2024/03/24 03:37:25;;;;;;;;;;;;;;;19.98;47.96;99737.22;2059870;28;2084;-67
2024/03/24 03:38:25;;;;;;;;;;;;;;;19.98;47.85;99731.47;2059880;28;2183;-68
2024/03/24 03:39:26;;;;;;;;;;;;;;;19.99;48.07;99735.06;2059131;28;2367;-67
2024/03/24 03:40:26;;;;;;;;;;;;;;;19.99;48.02;99737.94;2050082;28;2285;-67
2024/03/24 03:41:26;;;;;;;;;;;;;;;19.99;48.04;99738.69;2049307;28;2348;-68
2024/03/24 03:42:27;;;;;;;;;;;;;;;19.99;47.99;99735.81;2057412;28;2700;-68
2024/03/24 03:43:28;;;;;;;;;;;;;;;20.00;47.78;99731.53;2058715;28;2368;-67
2024/03/24 03:44:29;;;;;;;;;;;;;;;19.99;47.82;99735.81;2061417;28;1595;-67
2024/03/24 03:45:29;;;;;;;;;;;;;;;20.01;47.77;99733.00;2059567;28;2119;-67
2024/03/24 03:46:29;;;;;;;;;;;;;;;20.02;47.84;99727.97;2059675;28;1883;-67
2024/03/24 03:47:30;;;;;;;;;;;;;;;20.00;47.93;99728.66;2052431;28;2057;-67
2024/03/24 03:48:30;;;;;;;;;;;;;;;20.02;47.79;99728.72;2055110;28;1704;-68
2024/03/24 03:49:31;;;;;;;;;;;;;;;20.01;48.00;99721.50;2059327;28;1671;-67
2024/03/24 03:50:37;;;;;;;;;;;;;;;20.02;47.74;99722.97;2059240;28;2355;-67
2024/03/24 03:51:37;;;;;;;;;;;;;;;20.03;47.74;99718.69;2060535;28;2389;-67
2024/03/24 03:52:37;;;;;;;;;;;;;;;20.01;47.74;99724.38;2058047;28;2358;-67
2024/03/24 03:53:38;;;;;;;;;;;;;;;20.02;47.89;99714.34;2052421;28;1632;-68
2024/03/24 03:54:38;;;;;;;;;;;;;;;20.04;47.97;99720.16;2051507;28;2364;-67
2024/03/24 03:55:39;;;;;;;;;;;;;;;20.05;47.91;99723.78;2057114;28;2673;-67
2024/03/24 03:56:39;;;;;;;;;;;;;;;20.06;47.79;99719.47;2058000;28;2411;-67
2024/03/24 03:57:40;;;;;;;;;;;;;;;20.05;47.79;99718.75;2050875;28;2655;-68
2024/03/24 03:58:40;;;;;;;;;;;;;;;20.06;47.83;99717.34;2049185;28;2337;-67
2024/03/24 03:59:41;;;;;;;;;;;;;;;20.06;47.94;99720.22;2051587;28;2380;-68
2024/03/24 04:00:44;;;;;;;;;;;;;;;20.07;47.85;99713.06;2049706;28;6267;-67
2024/03/24 04:01:45;;;;;;;;;;;;;;;20.08;47.95;99713.78;2049420;28;2678;-68
2024/03/24 04:02:47;;;;;;;;;;;;;;;20.08;47.84;99720.28;2050964;28;2426;-67
2024/03/24 04:03:48;;;;;;;;;;;;;;;20.08;47.76;99720.28;2051436;28;1854;-67
2024/03/24 04:04:49;;;;;;;;;;;;;;;20.08;47.81;99720.28;2050768;28;1982;-68
2024/03/24 04:05:49;;;;;;;;;;;;;;;20.08;47.79;99705.91;2051944;28;2208;-68
2024/03/24 04:06:51;;;;;;;;;;;;;;;20.09;47.79;99709.53;2059912;28;1700;-67
2024/03/24 04:07:51;;;;;;;;;;;;;;;20.11;47.83;99703.09;2052330;28;1643;-68
2024/03/24 04:08:52;;;;;;;;;;;;;;;20.11;47.88;99700.94;2060165;28;1691;-68
2024/03/24 04:09:52;;;;;;;;;;;;;;;20.12;47.72;99707.44;2058926;28;2312;-67
2024/03/24 04:10:52;;;;;;;;;;;;;;;20.12;47.68;99707.44;2049511;28;2524;-68
2024/03/24 04:11:53;;;;;;;;;;;;;;;20.10;48.02;99702.38;2052549;28;2419;-68
2024/03/24 04:12:53;;;;;;;;;;;;;;;20.11;47.78;99700.94;2051116;28;2088;-67
2024/03/24 04:13:54;;;;;;;;;;;;;;;20.11;47.90;99692.31;2052789;28;2195;-67
2024/03/24 04:14:54;;;;;;;;;;;;;;;20.12;47.83;99696.69;2061249;28;1981;-67
2024/03/24 04:15:55;;;;;;;;;;;;;;;20.12;47.75;99695.94;2058689;28;2041;-67
2024/03/24 04:16:55;;;;;;;;;;;;;;;20.12;47.77;99696.69;2051005;28;2084;-67
2024/03/24 04:17:55;;;;;;;;;;;;;;;20.12;47.78;99690.19;2053003;28;2039;-67
2024/03/24 04:18:56;;;;;;;;;;;;;;;20.12;47.79;99695.94;2051432;28;2357;-68
2024/03/24 04:19:58;;;;;;;;;;;;;;;20.11;47.94;99694.47;2050414;28;2509;-68
2024/03/24 04:21:02;;;;;;;;;;;;;;;20.12;47.75;99701.69;2051345;28;2342;-68
2024/03/24 04:22:03;;;;;;;;;;;;;;;20.11;47.78;99694.47;2053604;28;1636;-68
2024/03/24 04:23:04;;;;;;;;;;;;;;;20.09;47.95;99693.00;2050934;28;2293;-67
2024/03/24 04:24:04;;;;;;;;;;;;;;;20.09;47.86;99687.25;2049443;28;2435;-68
2024/03/24 04:25:05;;;;;;;;;;;;;;;20.11;47.86;99694.47;2050261;28;2313;-67
2024/03/24 04:26:05;;;;;;;;;;;;;;;20.11;47.79;99691.59;2052380;28;2368;-68
2024/03/24 04:27:06;;;;;;;;;;;;;;;20.09;47.86;99681.53;2054285;28;2161;-67
2024/03/24 04:28:06;;;;;;;;;;;;;;;20.12;47.88;99684.44;2059363;28;2097;-68
2024/03/24 04:29:06;;;;;;;;;;;;;;;20.10;47.79;99682.25;2063080;28;1549;-67
2024/03/24 04:30:07;;;;;;;;;;;;;;;20.12;47.64;99684.44;2058631;28;6202;-67
2024/03/24 04:31:07;;;;;;;;;;;;;;;20.12;47.88;99687.31;2053536;28;2316;-68
2024/03/24 04:32:08;;;;;;;;;;;;;;;20.13;47.92;99674.41;2053042;28;2296;-68
2024/03/24 04:33:08;;;;;;;;;;;;;;;20.12;47.76;99684.44;2049807;28;2373;-67
2024/03/24 04:34:09;;;;;;;;;;;;;;;20.11;47.69;99683.69;2050801;28;2511;-67
2024/03/24 04:35:09;;;;;;;;;;;;;;;20.12;47.82;99685.19;2053648;28;2247;-68
2024/03/24 04:36:10;;;;;;;;;;;;;;;20.12;47.75;99687.31;2054146;28;1715;-67
2024/03/24 04:37:11;;;;;;;;;;;;;;;20.13;47.77;99691.66;2061798;28;2117;-67
2024/03/24 04:38:11;;;;;;;;;;;;;;;20.12;47.83;99688.06;2060175;28;1595;-68
2024/03/24 04:39:12;;;;;;;;;;;;;;;20.14;47.70;99681.63;2052843;28;2356;-68
2024/03/24 04:40:14;;;;;;;;;;;;;;;20.14;47.79;99690.25;2058743;28;2355;-68
2024/03/24 04:41:15;;;;;;;;;;;;;;;20.14;47.74;99687.38;2062891;28;1678;-67
2024/03/24 04:42:15;;;;;;;;;;;;;;;20.15;47.74;99683.09;2054751;28;1727;-68
2024/03/24 04:43:15;;;;;;;;;;;;;;;20.16;47.77;99690.28;2060814;28;2105;-67
2024/03/24 04:44:16;;;;;;;;;;;;;;;20.16;47.73;99687.41;2053256;28;1757;-67
2024/03/24 04:45:16;;;;;;;;;;;;;;;20.15;47.90;99685.97;2052503;28;2112;-68
2024/03/24 04:46:17;;;;;;;;;;;;;;;20.16;47.64;99685.31;2059412;28;1956;-68
2024/03/24 04:47:17;;;;;;;;;;;;;;;20.18;47.71;99684.59;2059511;28;2096;-68
2024/03/24 04:48:17;;;;;;;;;;;;;;;20.16;47.78;99685.31;2053951;28;1742;-67
2024/03/24 04:49:18;;;;;;;;;;;;;;;20.16;47.81;99685.31;2058620;28;2341;-67
2024/03/24 04:50:18;;;;;;;;;;;;;;;20.18;47.72;99681.72;2059525;28;2474;-67
2024/03/24 04:51:19;;;;;;;;;;;;;;;20.16;47.89;99687.41;2058334;28;2460;-68
2024/03/24 04:52:19;;;;;;;;;;;;;;;20.16;47.71;99687.41;2053355;28;2706;-67
2024/03/24 04:53:20;;;;;;;;;;;;;;;20.16;47.77;99687.41;2060828;28;2351;-69
2024/03/24 04:54:20;;;;;;;;;;;;;;;20.16;47.84;99673.06;2058701;28;2691;-68
2024/03/24 04:55:21;;;;;;;;;;;;;;;20.17;47.77;99677.41;2051422;28;2432;-68
2024/03/24 04:56:22;;;;;;;;;;;;;;;20.16;47.72;99681.66;2052924;28;1553;-67
2024/03/24 04:57:22;;;;;;;;;;;;;;;20.16;47.74;99678.81;2054342;28;1632;-68
2024/03/24 04:58:23;;;;;;;;;;;;;;;20.15;47.95;99678.06;2054143;28;1787;-68
2024/03/24 04:59:24;;;;;;;;;;;;;;;20.16;47.89;99678.81;2057823;28;2462;-68
2024/03/24 05:00:25;;;;;;;;;;;;;;;20.14;47.84;99673.03;2059734;28;6091;-67
2024/03/24 05:01:25;;;;;;;;;;;;;;;20.14;47.84;99678.75;2052811;28;2305;-68
2024/03/24 05:02:25;;;;;;;;;;;;;;;20.15;47.80;99677.34;2050163;28;2438;-68
2024/03/24 05:03:26;;;;;;;;;;;;;;;20.14;48.03;99676.63;2058333;28;2410;-68
2024/03/24 05:04:26;;;;;;;;;;;;;;;20.13;47.88;99674.41;2061545;28;1642;-68
2024/03/24 05:05:27;;;;;;;;;;;;;;;20.14;47.89;99676.63;2053887;28;1813;-68
2024/03/24 05:06:27;;;;;;;;;;;;;;;20.14;47.88;99675.91;2053377;28;2014;-68
2024/03/24 05:07:29;;;;;;;;;;;;;;;20.14;47.79;99678.75;2054437;28;2689;-68
2024/03/24 05:08:33;;;;;;;;;;;;;;;20.14;47.79;99675.91;2050245;28;2291;-68
2024/03/24 05:09:33;;;;;;;;;;;;;;;20.15;47.81;99680.22;2053255;28;2760;-68
2024/03/24 05:10:36;;;;;;;;;;;;;;;20.15;47.81;99680.22;2059897;28;2490;-68
2024/03/24 05:11:37;;;;;;;;;;;;;;;20.15;47.76;99680.22;2059851;28;2379;-67
2024/03/24 05:12:37;;;;;;;;;;;;;;;20.13;47.90;99678.00;2055473;28;2209;-67
2024/03/24 05:13:38;;;;;;;;;;;;;;;20.15;47.81;99671.59;2059671;28;1674;-67
2024/03/24 05:14:38;;;;;;;;;;;;;;;20.15;47.76;99672.31;2054038;28;1854;-67
2024/03/24 05:15:39;;;;;;;;;;;;;;;20.15;47.75;99672.31;2044692;28;2156;-68
2024/03/24 05:16:39;;;;;;;;;;;;;;;20.17;47.99;99674.53;2054511;28;1677;-68
2024/03/24 05:17:40;;;;;;;;;;;;;;;20.17;47.72;99671.66;2053459;28;2264;-68
2024/03/24 05:18:40;;;;;;;;;;;;;;;20.17;47.75;99680.28;2052142;28;2388;-68
2024/03/24 05:19:41;;;;;;;;;;;;;;;20.18;47.90;99675.97;2051769;28;2321;-68